Time;durP1;ratioP1;P1;durP2;ratioP2;P2;SDS_P1;SDS_P2;PMS_P1;PMS_P2;Temp;Humidity;BMP_temperature;BMP_pressure;BME280_temperature;BME280_humidity;BME280_pressure;Samples;Min_cycle;Max_cycle;Signal;HPM_P1;HPM_P2
2022/04/12 00:00:34;;;;;;;7.78;3.00;;;;;;;4.24;65.19;101143.13;5013781;28;20075;-86
2022/04/12 00:03:06;;;;;;;7.03;2.63;;;;;;;4.22;65.29;101147.50;5000257;28;20133;-83
2022/04/12 00:05:36;;;;;;;7.07;2.72;;;;;;;4.21;65.02;101151.00;5011138;28;20057;-81
2022/04/12 00:08:06;;;;;;;9.95;2.50;;;;;;;4.18;65.41;101151.91;5032654;28;20128;-82
2022/04/12 00:10:33;;;;;;;8.73;2.78;;;;;;;4.17;65.76;101152.81;5012126;28;20053;-86
2022/04/12 00:13:01;;;;;;;5.70;2.75;;;;;;;4.13;66.17;101150.31;5000636;28;20044;-85
2022/04/12 00:15:31;;;;;;;5.13;2.65;;;;;;;4.13;66.38;101150.31;5014426;28;20041;-86
2022/04/12 00:20:49;;;;;;;6.40;3.15;;;;;;;4.07;66.39;101149.56;4998650;28;20052;-81
2022/04/12 00:23:16;;;;;;;10.27;2.95;;;;;;;4.06;66.58;101158.28;5015689;28;20572;-81
2022/04/12 00:25:44;;;;;;;6.75;2.78;;;;;;;4.02;66.98;101156.66;4983450;28;20037;-87
2022/04/12 00:28:13;;;;;;;7.32;3.22;;;;;;;4.00;67.24;101145.38;4979025;28;20469;-84
2022/04/12 00:30:42;;;;;;;10.20;3.33;;;;;;;4.03;67.22;101149.69;5008833;28;20053;-86
2022/04/12 00:33:09;;;;;;;9.50;3.25;;;;;;;4.03;67.23;101144.47;5002791;28;20042;-84
2022/04/12 00:35:37;;;;;;;7.20;2.70;;;;;;;4.01;67.52;101157.56;5012193;28;20037;-87
2022/04/12 00:38:17;;;;;;;6.50;2.58;;;;;;;4.00;68.08;101152.34;4986385;28;20046;-83
2022/04/12 00:40:47;;;;;;;7.85;2.83;;;;;;;3.97;68.42;101160.25;5011950;28;20502;-85
2022/04/12 00:43:17;;;;;;;4.88;2.35;;;;;;;3.94;67.80;101149.91;5012944;28;20049;-84
2022/04/12 00:45:46;;;;;;;6.10;2.63;;;;;;;3.93;67.61;101151.66;5009142;28;20046;-82
2022/04/12 00:48:19;;;;;;;9.80;3.65;;;;;;;3.92;67.61;101142.13;5006567;28;20073;-85
2022/04/12 00:50:46;;;;;;;12.43;3.33;;;;;;;3.94;68.11;101140.34;5010013;28;20052;-80
2022/04/12 00:53:17;;;;;;;6.38;2.72;;;;;;;3.94;68.24;101142.09;5011715;28;20493;-86
2022/04/12 00:55:46;;;;;;;9.65;3.00;;;;;;;3.94;68.62;101150.75;4991621;28;20056;-82
2022/04/12 00:58:15;;;;;;;10.80;3.30;;;;;;;3.95;68.11;101144.66;5014952;28;20037;-83
2022/04/12 01:00:43;;;;;;;8.23;3.10;;;;;;;3.98;68.02;101151.56;4993108;28;20300;-82
2022/04/12 01:03:12;;;;;;;6.00;2.60;;;;;;;3.96;68.37;101143.78;5002523;28;20055;-86
2022/04/12 01:05:41;;;;;;;9.18;2.80;;;;;;;3.95;68.20;101143.78;5010497;28;20053;-85
2022/04/12 01:08:11;;;;;;;12.10;2.85;;;;;;;3.92;68.00;101143.88;4997352;28;20038;-85
2022/04/12 01:10:41;;;;;;;7.57;2.80;;;;;;;3.89;68.49;101141.34;4993629;28;20317;-87
2022/04/12 01:13:08;;;;;;;11.30;3.03;;;;;;;3.93;68.52;101148.19;4997600;28;20045;-82
2022/04/12 01:15:37;;;;;;;10.40;3.13;;;;;;;3.90;68.48;101151.72;4994173;28;20041;-86
2022/04/12 01:18:06;;;;;;;7.22;2.95;;;;;;;3.88;68.77;101147.44;4996242;28;20065;-85
2022/04/12 01:20:35;;;;;;;14.68;3.33;;;;;;;3.85;68.86;101142.31;5026635;28;20504;-84
2022/04/12 01:23:16;;;;;;;7.03;3.30;;;;;;;3.84;68.87;101143.19;4981227;28;20073;-85
2022/04/12 01:25:43;;;;;;;9.40;3.45;;;;;;;3.79;68.46;101143.31;4992087;28;21011;-78
2022/04/12 01:28:11;;;;;;;9.90;3.78;;;;;;;3.74;69.46;101145.16;5013604;28;20045;-85
2022/04/12 01:30:41;;;;;;;8.32;3.70;;;;;;;3.72;69.49;101147.78;5009017;28;20048;-85
2022/04/12 01:33:09;;;;;;;6.18;2.83;;;;;;;3.71;69.57;101140.00;5030136;28;20049;-86
2022/04/12 01:35:37;;;;;;;5.78;2.78;;;;;;;3.67;69.45;101144.41;4975416;28;20056;-86
2022/04/12 01:38:04;;;;;;;11.52;3.45;;;;;;;3.65;69.87;101140.13;5020604;28;20053;-81
2022/04/12 01:40:31;;;;;;;7.75;2.97;;;;;;;3.61;69.54;101139.38;4991674;28;20034;-84
2022/04/12 01:42:59;;;;;;;8.98;2.80;;;;;;;3.59;70.18;101135.06;5020073;28;20053;-86
2022/04/12 01:45:28;;;;;;;7.10;3.63;;;;;;;3.58;70.31;101138.56;4995648;28;20040;-86
2022/04/12 01:47:57;;;;;;;9.80;3.30;;;;;;;3.57;70.59;101140.31;4988265;28;20122;-82
2022/04/12 01:50:24;;;;;;;11.05;3.17;;;;;;;3.53;70.62;101141.28;5007975;28;20125;-84
2022/04/12 01:52:53;;;;;;;8.18;3.20;;;;;;;3.51;71.34;101146.53;4969925;28;20037;-86
2022/04/12 01:55:22;;;;;;;7.25;3.45;;;;;;;3.45;71.26;101144.03;4994851;28;20047;-85
2022/04/12 01:57:51;;;;;;;9.77;3.30;;;;;;;3.44;71.63;101138.88;5033703;28;20037;-86
2022/04/12 02:00:19;;;;;;;5.65;2.95;;;;;;;3.45;71.25;101135.38;5009804;28;20049;-86
2022/04/12 02:02:47;;;;;;;7.85;3.45;;;;;;;3.43;71.71;101135.41;5030724;28;20460;-80
2022/04/12 02:05:15;;;;;;;8.45;3.63;;;;;;;3.43;71.95;101132.81;5010683;28;20038;-86
2022/04/12 02:07:43;;;;;;;6.95;2.90;;;;;;;3.41;71.48;101136.31;4978134;28;20133;-85
2022/04/12 02:10:12;;;;;;;6.47;2.88;;;;;;;3.42;71.48;101143.22;5011762;28;20043;-84
2022/04/12 02:12:40;;;;;;;9.57;3.40;;;;;;;3.41;71.51;101134.56;4994939;28;20030;-84
2022/04/12 02:15:08;;;;;;;9.82;3.58;;;;;;;3.41;71.26;101134.56;4994500;28;20377;-82
2022/04/12 02:17:36;;;;;;;8.82;3.95;;;;;;;3.39;71.10;101131.16;4992781;28;20052;-86
2022/04/12 02:20:07;;;;;;;7.88;3.38;;;;;;;3.40;71.71;101126.81;5010158;28;20037;-86
2022/04/12 02:22:35;;;;;;;9.65;3.05;;;;;;;3.38;71.67;101133.78;5004509;28;20052;-85
2022/04/12 02:25:03;;;;;;;5.75;2.88;;;;;;;3.37;71.36;101125.09;4975417;28;20045;-86
2022/04/12 02:27:31;;;;;;;5.30;2.92;;;;;;;3.35;71.59;101126.06;5018796;28;20053;-87
2022/04/12 02:29:59;;;;;;;5.78;2.88;;;;;;;3.33;71.70;101128.66;5010812;28;20052;-84
2022/04/12 02:32:26;;;;;;;12.30;3.83;;;;;;;3.30;71.96;101120.94;5010799;28;20037;-87
2022/04/12 02:34:57;;;;;;;9.02;3.25;;;;;;;3.27;71.93;101121.00;4976716;28;20053;-84
2022/04/12 02:37:25;;;;;;;9.88;3.13;;;;;;;3.24;72.39;101115.84;4999622;28;20052;-83
2022/04/12 02:39:52;;;;;;;9.00;3.67;;;;;;;3.23;72.52;101125.41;4993729;28;20128;-87
2022/04/12 02:42:20;;;;;;;7.95;3.03;;;;;;;3.20;72.81;101115.06;4995452;28;20050;-86
2022/04/12 02:44:47;;;;;;;7.85;3.85;;;;;;;3.17;72.83;101125.53;4994914;28;20099;-84
2022/04/12 02:47:14;;;;;;;10.23;3.65;;;;;;;3.13;73.59;101123.03;4994597;28;20041;-81
2022/04/12 02:49:44;;;;;;;13.70;3.75;;;;;;;3.12;73.47;101118.72;5013563;28;20495;-81
2022/04/12 02:52:15;;;;;;;9.40;3.53;;;;;;;3.04;72.75;101113.66;5019452;28;20051;-84
2022/04/12 02:54:44;;;;;;;10.75;3.97;;;;;;;3.01;73.68;101118.91;4997448;28;20429;-86
2022/04/12 02:57:12;;;;;;;8.02;3.20;;;;;;;2.99;74.04;101129.38;5011702;28;20049;-81
2022/04/12 02:59:40;;;;;;;13.55;3.88;;;;;;;2.99;74.36;101126.75;4987270;28;20042;-85
2022/04/12 03:02:07;;;;;;;8.88;3.63;;;;;;;2.96;74.43;101129.41;4993023;28;20064;-84
2022/04/12 03:04:41;;;;;;;11.07;3.55;;;;;;;2.94;74.12;101128.59;5014046;28;20049;-82
2022/04/12 03:07:09;;;;;;;11.65;3.97;;;;;;;2.89;74.02;101130.44;5036094;28;20044;-80
2022/04/12 03:09:38;;;;;;;9.65;3.30;;;;;;;2.89;74.12;101139.97;5020173;28;20646;-82
2022/04/12 03:12:06;;;;;;;8.63;3.33;;;;;;;2.87;74.41;101140.00;5002533;28;20504;-84
2022/04/12 03:14:33;;;;;;;17.52;3.63;;;;;;;2.88;74.32;101138.25;5006249;28;20211;-83
2022/04/12 03:17:03;;;;;;;14.50;3.67;;;;;;;2.84;74.58;101137.47;4999729;28;20058;-85
2022/04/12 03:19:32;;;;;;;12.23;4.28;;;;;;;2.83;74.68;101133.13;5000339;28;20058;-83
2022/04/12 03:21:59;;;;;;;9.73;3.60;;;;;;;2.80;74.13;101141.00;4999301;28;20124;-83
2022/04/12 03:24:30;;;;;;;10.57;3.45;;;;;;;2.78;74.59;101134.97;4996666;28;20080;-84
2022/04/12 03:27:03;;;;;;;11.23;3.75;;;;;;;2.74;75.08;101151.50;4993224;28;20053;-83
2022/04/12 03:29:35;;;;;;;8.95;4.07;;;;;;;2.70;75.18;101140.31;5037277;28;20064;-83
2022/04/12 03:32:02;;;;;;;10.35;3.45;;;;;;;2.67;75.37;101139.53;5017294;28;20049;-86
2022/04/12 03:34:31;;;;;;;11.10;3.88;;;;;;;2.66;75.26;101137.81;5003511;28;20048;-85
2022/04/12 03:36:59;;;;;;;11.68;4.53;;;;;;;2.65;75.38;101138.69;5011603;28;20103;-86
2022/04/12 03:39:29;;;;;;;8.57;3.72;;;;;;;2.61;75.31;101143.09;5003250;28;20148;-84
2022/04/12 03:42:00;;;;;;;10.77;4.20;;;;;;;2.60;75.62;101150.91;4978631;28;20044;-84
2022/04/12 03:44:31;;;;;;;10.60;3.92;;;;;;;2.58;75.88;101150.94;5016669;28;20045;-85
2022/04/12 03:47:08;;;;;;;10.38;3.88;;;;;;;2.56;75.98;101151.84;5024462;28;20508;-85
2022/04/12 03:49:36;;;;;;;6.65;3.67;;;;;;;2.53;75.95;101157.97;4997819;28;20053;-84
2022/04/12 03:52:06;;;;;;;11.05;4.35;;;;;;;2.52;75.94;101162.31;4995708;28;21164;-82
2022/04/12 03:54:33;;;;;;;11.35;4.97;;;;;;;2.50;76.03;101161.47;4996658;28;20563;-84
2022/04/12 03:57:05;;;;;;;17.85;4.65;;;;;;;2.48;76.24;101154.59;5011985;28;20038;-86
2022/04/12 03:59:32;;;;;;;11.13;4.15;;;;;;;2.48;76.34;101157.19;4996138;28;20044;-86
2022/04/12 04:01:59;;;;;;;11.45;5.13;;;;;;;2.47;76.50;101156.31;4991936;28;20053;-84
2022/04/12 04:04:27;;;;;;;10.23;4.38;;;;;;;2.46;76.05;101162.38;4980596;28;20041;-81
2022/04/12 04:06:59;;;;;;;7.30;4.60;;;;;;;2.46;76.86;101157.19;5014622;28;20116;-85
2022/04/12 04:09:29;;;;;;;12.70;4.65;;;;;;;2.47;76.73;101164.09;5013279;28;20479;-87
2022/04/12 04:11:57;;;;;;;11.57;4.53;;;;;;;2.46;76.24;101162.38;5013320;28;20045;-81
2022/04/12 04:14:26;;;;;;;10.25;4.00;;;;;;;2.46;76.59;101156.34;5015661;28;20060;-87
2022/04/12 04:16:55;;;;;;;12.05;4.07;;;;;;;2.47;76.88;101155.44;4998693;28;20430;-82
2022/04/12 04:19:23;;;;;;;12.90;5.00;;;;;;;2.48;76.56;101160.63;5011790;28;20041;-85
2022/04/12 04:21:55;;;;;;;9.55;4.53;;;;;;;2.48;77.07;101158.03;4994624;28;20400;-85
2022/04/12 04:24:27;;;;;;;12.88;5.03;;;;;;;2.49;76.98;101162.34;4998387;28;20132;-84
2022/04/12 04:26:56;;;;;;;9.25;4.30;;;;;;;2.48;77.16;101154.59;5030108;28;20037;-86
2022/04/12 04:29:27;;;;;;;7.63;4.30;;;;;;;2.50;78.03;101156.25;4995677;28;20423;-84
2022/04/12 04:31:56;;;;;;;8.95;4.28;;;;;;;2.54;77.93;101159.66;5030564;28;20052;-84
2022/04/12 04:34:23;;;;;;;8.63;4.82;;;;;;;2.54;77.66;101157.06;5011733;28;20290;-84
2022/04/12 04:36:51;;;;;;;12.70;4.85;;;;;;;2.57;77.26;101156.13;4984331;28;20351;-87
2022/04/12 04:39:18;;;;;;;8.77;4.25;;;;;;;2.61;77.06;101161.28;5000333;28;20527;-86
2022/04/12 04:41:47;;;;;;;11.52;4.68;;;;;;;2.66;77.19;101167.25;5007160;28;20435;-81
2022/04/12 04:44:14;;;;;;;14.50;5.63;;;;;;;2.72;76.52;101159.34;4980082;28;20509;-84
2022/04/12 04:46:44;;;;;;;9.93;4.82;;;;;;;2.80;76.10;101159.22;5012665;28;20041;-85
2022/04/12 04:49:15;;;;;;;13.63;5.13;;;;;;;2.84;75.91;101163.47;5014785;28;20449;-82
2022/04/12 04:51:43;;;;;;;8.98;4.78;;;;;;;2.84;75.83;101158.28;4988600;28;20559;-86
2022/04/12 04:54:14;;;;;;;11.75;5.03;;;;;;;2.92;75.90;101163.31;4996403;28;20040;-86
2022/04/12 04:56:43;;;;;;;12.93;5.25;;;;;;;2.98;75.96;101171.00;5015447;28;20044;-85
2022/04/12 04:59:12;;;;;;;11.88;4.68;;;;;;;3.02;75.36;101165.72;5026471;28;20046;-85
2022/04/12 05:01:41;;;;;;;9.93;4.35;;;;;;;3.07;75.12;101162.19;5014112;28;20465;-84
2022/04/12 05:04:13;;;;;;;12.55;4.90;;;;;;;3.15;74.94;101162.88;5036493;28;20080;-82
2022/04/12 05:06:41;;;;;;;12.70;5.22;;;;;;;3.20;74.12;101164.50;5021134;28;20099;-85
2022/04/12 05:09:11;;;;;;;14.13;6.05;;;;;;;3.30;74.02;101168.63;4969279;28;20450;-81
2022/04/12 05:11:42;;;;;;;18.25;6.28;;;;;;;3.32;73.74;101165.13;4997629;28;20194;-84
2022/04/12 05:14:10;;;;;;;10.88;4.90;;;;;;;3.36;73.90;101167.66;5012953;28;20455;-86
2022/04/12 05:16:37;;;;;;;11.55;5.28;;;;;;;3.40;73.18;101174.50;4993453;28;20057;-84
2022/04/12 05:19:05;;;;;;;12.20;5.43;;;;;;;3.48;72.99;101185.63;4991449;28;20042;-84
2022/04/12 05:21:33;;;;;;;13.85;6.10;;;;;;;3.59;73.15;101181.94;5014286;28;20102;-83
2022/04/12 05:24:01;;;;;;;13.20;5.53;;;;;;;3.65;72.26;101173.97;5010005;28;20047;-86
2022/04/12 05:26:30;;;;;;;15.07;5.13;;;;;;;3.81;71.17;101170.16;4995286;28;20049;-84
2022/04/12 05:28:58;;;;;;;11.88;5.78;;;;;;;3.91;70.69;101178.63;5024581;28;20123;-78
2022/04/12 05:31:27;;;;;;;11.63;5.10;;;;;;;4.01;70.04;101177.53;4991988;28;20053;-85
2022/04/12 05:33:59;;;;;;;11.95;5.15;;;;;;;4.14;70.27;101175.47;4969510;28;20053;-86
2022/04/12 05:36:36;;;;;;;13.30;5.28;;;;;;;4.25;69.35;101176.94;5013923;28;20049;-82
2022/04/12 05:39:03;;;;;;;12.15;5.40;;;;;;;4.32;69.14;101180.25;4995285;28;20045;-88
2022/04/12 05:41:30;;;;;;;15.00;6.47;;;;;;;4.39;68.45;101174.00;5010292;28;20503;-84
2022/04/12 05:43:58;;;;;;;14.43;5.47;;;;;;;4.45;68.21;101173.84;4997984;28;20095;-86
2022/04/12 05:46:26;;;;;;;11.02;5.10;;;;;;;4.56;67.60;101182.28;4996442;28;20075;-85
2022/04/12 05:49:01;;;;;;;10.30;5.15;;;;;;;4.65;67.15;101185.53;5012304;28;20033;-86
2022/04/12 05:51:29;;;;;;;11.88;5.35;;;;;;;4.79;66.33;101186.03;4993556;28;20068;-84
2022/04/12 05:53:58;;;;;;;13.23;5.15;;;;;;;4.89;66.53;101197.94;5015175;28;20114;-86
2022/04/12 05:56:25;;;;;;;10.43;5.05;;;;;;;4.97;65.59;101192.53;4962073;28;20071;-86
2022/04/12 05:58:54;;;;;;;11.65;5.65;;;;;;;5.06;65.15;101193.13;5010819;28;20427;-83
2022/04/12 06:01:22;;;;;;;11.73;5.13;;;;;;;5.20;64.58;101197.97;4995245;28;20120;-85
2022/04/12 06:04:03;;;;;;;18.55;5.88;;;;;;;5.35;64.01;101199.28;4991886;28;20475;-83
2022/04/12 06:06:33;;;;;;;14.70;5.05;;;;;;;5.48;62.80;101205.88;4993442;28;20128;-85
2022/04/12 06:09:00;;;;;;;12.98;5.40;;;;;;;5.58;62.37;101203.84;5000421;28;20037;-85
2022/04/12 06:11:29;;;;;;;13.55;4.60;;;;;;;5.65;61.34;101207.16;5003600;28;20080;-86
2022/04/12 06:13:58;;;;;;;14.05;4.95;;;;;;;5.75;61.20;101209.44;4995240;28;20338;-83
2022/04/12 06:16:29;;;;;;;9.98;4.63;;;;;;;5.85;60.88;101204.81;4992109;28;20099;-85
2022/04/12 06:18:58;;;;;;;8.70;4.35;;;;;;;5.96;59.63;101201.91;4994805;28;20041;-84
2022/04/12 06:21:28;;;;;;;17.45;5.03;;;;;;;6.10;59.17;101204.94;5010847;28;20041;-86
2022/04/12 06:23:56;;;;;;;13.30;5.25;;;;;;;6.21;58.73;101207.22;4991551;28;20103;-83
2022/04/12 06:26:23;;;;;;;10.82;4.68;;;;;;;6.29;57.83;101205.22;5009771;28;20065;-86
2022/04/12 06:28:50;;;;;;;10.55;4.85;;;;;;;6.32;57.63;101207.75;4994134;28;20045;-85
2022/04/12 06:31:18;;;;;;;14.18;5.57;;;;;;;6.49;56.63;101204.59;5011663;28;20046;-85
2022/04/12 06:33:47;;;;;;;9.80;4.15;;;;;;;6.58;56.22;101209.53;4975493;28;21412;-84
2022/04/12 06:36:16;;;;;;;9.98;4.50;;;;;;;6.67;55.47;101216.22;5024478;28;20045;-82
2022/04/12 06:38:43;;;;;;;12.20;4.38;;;;;;;6.82;55.28;101218.31;5005818;28;20067;-84
2022/04/12 06:41:14;;;;;;;10.85;4.50;;;;;;;6.96;54.39;101228.31;4975825;28;20041;-83
2022/04/12 06:43:48;;;;;;;14.05;4.38;;;;;;;7.03;54.57;101221.97;5004203;28;20079;-82
2022/04/12 06:46:17;;;;;;;13.13;5.10;;;;;;;7.10;54.41;101223.44;5014235;28;20044;-84
2022/04/12 06:48:48;;;;;;;9.82;4.55;;;;;;;7.18;53.80;101218.81;4983210;28;20041;-81
2022/04/12 06:51:16;;;;;;;7.78;4.13;;;;;;;7.34;53.64;101225.22;5018249;28;20104;-81
2022/04/12 06:53:44;;;;;;;8.55;3.95;;;;;;;7.49;53.07;101229.03;4999301;28;20244;-84
2022/04/12 06:56:16;;;;;;;9.43;4.38;;;;;;;7.70;52.92;101222.16;4984310;28;20052;-80
2022/04/12 06:58:45;;;;;;;10.02;4.07;;;;;;;7.79;52.67;101231.41;5011734;28;20078;-85
2022/04/12 07:01:13;;;;;;;12.55;4.35;;;;;;;7.92;52.71;101237.06;5013963;28;20105;-81
2022/04/12 07:03:44;;;;;;;7.97;4.20;;;;;;;7.99;51.88;101235.91;4986175;28;20072;-86
2022/04/12 07:06:11;;;;;;;8.23;4.30;;;;;;;8.19;51.11;101241.22;4978521;28;20400;-83
2022/04/12 07:08:41;;;;;;;13.65;4.22;;;;;;;8.23;50.48;101249.84;4993377;28;20380;-86
2022/04/12 07:11:08;;;;;;;13.90;4.65;;;;;;;8.30;50.14;101248.69;5010271;28;20166;-86
2022/04/12 07:13:37;;;;;;;10.45;4.75;;;;;;;8.41;50.56;101248.28;4977424;28;20092;-87
2022/04/12 07:16:08;;;;;;;7.38;4.00;;;;;;;8.56;50.16;101251.16;5010648;28;20472;-84
2022/04/12 07:18:35;;;;;;;12.95;5.18;;;;;;;8.63;50.18;101242.09;4998739;28;20127;-84
2022/04/12 07:21:03;;;;;;;14.75;4.75;;;;;;;8.87;48.84;101244.63;5003129;28;20159;-85
2022/04/12 07:23:30;;;;;;;10.80;4.82;;;;;;;9.03;49.39;101245.69;4998877;28;20050;-85
2022/04/12 07:25:57;;;;;;;8.77;4.03;;;;;;;9.21;49.16;101248.47;4994133;28;20461;-80
2022/04/12 07:28:25;;;;;;;10.60;4.03;;;;;;;9.32;48.32;101246.19;4999499;28;20076;-82
2022/04/12 07:30:53;;;;;;;13.05;4.85;;;;;;;9.46;47.81;101243.00;5011547;28;20330;-85
2022/04/12 07:33:36;;;;;;;9.93;3.88;;;;;;;9.63;46.58;101241.28;5015980;28;20122;-86
2022/04/12 07:36:05;;;;;;;10.35;4.28;;;;;;;9.80;46.79;101250.19;5002641;28;20045;-85
2022/04/12 07:38:34;;;;;;;8.00;4.30;;;;;;;10.04;46.04;101243.81;4997636;28;20052;-85
2022/04/12 07:41:04;;;;;;;8.32;3.78;;;;;;;10.15;45.64;101246.78;4996188;28;20414;-86
2022/04/12 07:43:45;;;;;;;9.63;4.18;;;;;;;10.33;45.24;101245.09;4998475;28;20060;-82
2022/04/12 07:46:17;;;;;;;11.75;4.35;;;;;;;10.42;44.40;101240.31;5013198;28;20032;-81
2022/04/12 07:48:49;;;;;;;11.88;4.38;;;;;;;10.63;44.34;101253.28;5009230;28;20055;-86
2022/04/12 07:51:16;;;;;;;9.38;4.68;;;;;;;10.86;43.83;101235.50;5015672;28;20049;-82
2022/04/12 07:53:43;;;;;;;10.98;4.15;;;;;;;11.01;43.92;101234.72;5016052;28;20137;-85
2022/04/12 07:56:12;;;;;;;11.85;4.38;;;;;;;11.27;42.83;101229.88;5000492;28;20048;-81
2022/04/12 07:58:39;;;;;;;9.18;3.72;;;;;;;11.45;42.03;101242.09;4980822;28;20053;-86
2022/04/12 08:01:07;;;;;;;15.93;4.88;;;;;;;11.49;41.32;101240.16;5018457;28;20041;-83
2022/04/12 08:03:36;;;;;;;10.70;4.25;;;;;;;11.72;41.67;101236.28;5013733;28;20052;-86
2022/04/12 08:06:04;;;;;;;9.80;4.53;;;;;;;11.89;40.91;101231.00;4996921;28;20041;-86
2022/04/12 08:08:34;;;;;;;10.18;3.97;;;;;;;12.09;40.33;101243.06;5022645;28;20057;-85
2022/04/12 08:11:02;;;;;;;9.63;3.40;;;;;;;12.07;39.14;101243.19;5017676;28;20051;-84
2022/04/12 08:13:32;;;;;;;5.97;3.53;;;;;;;12.24;39.22;101241.38;5016348;28;20060;-86
2022/04/12 08:16:00;;;;;;;7.43;3.75;;;;;;;12.39;39.15;101244.00;5001554;28;20148;-86
2022/04/12 08:18:31;;;;;;;8.02;3.40;;;;;;;12.64;38.91;101235.50;5006225;28;20073;-83
2022/04/12 08:20:59;;;;;;;11.68;4.10;;;;;;;12.75;38.55;101234.06;5001390;28;20053;-84
2022/04/12 08:23:27;;;;;;;6.55;3.85;;;;;;;12.86;38.47;101229.00;4985482;28;20488;-86
2022/04/12 08:25:54;;;;;;;7.30;4.05;;;;;;;13.12;37.61;101228.28;5027296;28;20033;-81
2022/04/12 08:28:22;;;;;;;6.03;3.17;;;;;;;13.17;37.31;101231.50;5020974;28;20119;-81
2022/04/12 08:30:53;;;;;;;9.50;4.38;;;;;;;13.38;36.57;101223.28;5022518;28;20053;-83
2022/04/12 08:33:22;;;;;;;8.93;3.65;;;;;;;13.75;35.87;101226.28;5006585;28;20119;-85
2022/04/12 08:35:49;;;;;;;7.55;3.42;;;;;;;13.81;35.38;101231.19;4990863;28;20136;-83
2022/04/12 08:38:17;;;;;;;7.53;3.20;;;;;;;14.10;34.52;101226.69;5015654;28;20045;-84
2022/04/12 08:40:44;;;;;;;4.80;3.58;;;;;;;14.33;34.25;101230.50;4977958;28;20117;-86
2022/04/12 08:43:14;;;;;;;10.02;3.22;;;;;;;14.52;33.92;101230.19;4985565;28;20045;-83
2022/04/12 08:45:45;;;;;;;10.93;3.30;;;;;;;14.41;33.52;101230.88;4981574;28;20045;-85
2022/04/12 08:48:15;;;;;;;6.50;3.70;;;;;;;14.66;33.18;101228.31;5001749;28;20088;-83
2022/04/12 08:50:44;;;;;;;9.85;4.35;;;;;;;14.46;33.26;101230.56;4990982;28;20064;-86
2022/04/12 08:53:13;;;;;;;7.00;3.92;;;;;;;14.73;33.07;101228.78;5018770;28;20063;-86
2022/04/12 08:55:41;;;;;;;4.65;3.00;;;;;;;14.52;32.49;101238.97;4978738;28;20041;-85
2022/04/12 08:58:08;;;;;;;9.23;4.13;;;;;;;14.59;32.71;101231.47;4989401;28;20099;-85
2022/04/12 09:00:36;;;;;;;7.15;3.10;;;;;;;14.93;32.61;101228.25;4993164;28;20193;-88
2022/04/12 09:03:04;;;;;;;8.07;4.00;;;;;;;14.84;32.58;101230.69;4995807;28;20041;-85
2022/04/12 09:05:34;;;;;;;8.45;4.05;;;;;;;14.67;31.48;101219.41;5009240;28;20363;-87
2022/04/12 09:08:03;;;;;;;10.20;3.65;;;;;;;14.86;31.91;101219.03;4999890;28;20141;-86
2022/04/12 09:10:38;;;;;;;9.02;4.15;;;;;;;15.04;31.44;101221.38;4977697;28;20144;-86
2022/04/12 09:13:10;;;;;;;10.13;3.78;;;;;;;15.10;31.55;101210.38;4997415;28;20041;-85
2022/04/12 09:15:43;;;;;;;9.57;4.15;;;;;;;15.24;31.32;101204.97;4977360;28;20091;-82
2022/04/12 09:18:42;;;;;;;6.50;3.85;;;;;;;15.03;31.69;101206.44;5014235;28;20049;-86
2022/04/12 09:21:20;;;;;;;6.95;4.20;;;;;;;15.13;31.34;101203.06;5010473;28;20107;-83
2022/04/12 09:23:55;;;;;;;12.13;4.00;;;;;;;15.17;31.07;101209.84;5006922;28;20120;-85
2022/04/12 09:26:29;;;;;;;13.18;3.65;;;;;;;14.99;31.99;101205.78;4979017;28;20045;-87
2022/04/12 09:28:58;;;;;;;7.68;4.22;;;;;;;15.19;31.50;101207.09;4978745;28;20488;-85
2022/04/12 09:31:25;;;;;;;13.05;3.95;;;;;;;15.31;31.63;101208.91;4993835;28;20050;-85
2022/04/12 09:33:55;;;;;;;8.57;4.55;;;;;;;15.45;31.74;101200.81;4982644;28;20204;-80
2022/04/12 09:36:23;;;;;;;9.90;4.82;;;;;;;15.78;31.42;101211.84;5009890;28;20049;-82
2022/04/12 09:38:57;;;;;;;8.13;4.50;;;;;;;15.79;31.08;101210.88;4994622;28;20057;-84
2022/04/12 09:41:28;;;;;;;6.38;3.55;;;;;;;15.77;30.95;101210.16;4997957;28;20492;-81
2022/04/12 09:44:08;;;;;;;10.68;4.15;;;;;;;15.83;30.68;101197.28;4989548;28;20049;-88
2022/04/12 09:46:39;;;;;;;11.98;4.50;;;;;;;16.00;31.49;101195.22;5001027;28;20052;-81
2022/04/12 09:49:10;;;;;;;5.85;4.03;;;;;;;16.29;31.26;101198.38;4980459;28;20050;-84
2022/04/12 09:51:41;;;;;;;6.50;3.88;;;;;;;16.50;30.87;101196.78;5029172;28;20042;-86
2022/04/12 09:54:08;;;;;;;7.32;4.20;;;;;;;16.90;29.84;101205.31;4980493;28;20034;-82
2022/04/12 09:56:39;;;;;;;9.88;4.47;;;;;;;16.84;29.39;101188.94;5001366;28;20084;-86
2022/04/12 09:59:14;;;;;;;7.43;4.30;;;;;;;17.00;29.41;101192.16;5000298;28;20050;-85
2022/04/12 10:01:42;;;;;;;9.23;4.43;;;;;;;17.08;29.07;101191.56;5015882;28;20040;-87
2022/04/12 10:04:15;;;;;;;10.25;5.22;;;;;;;17.23;28.70;101192.19;5010305;28;20492;-87
2022/04/12 10:06:44;;;;;;;9.45;4.65;;;;;;;17.12;28.40;101188.53;4992836;28;20041;-81
2022/04/12 10:09:13;;;;;;;6.90;4.25;;;;;;;17.08;29.20;101181.75;5009875;28;20100;-86
2022/04/12 10:11:45;;;;;;;8.85;4.97;;;;;;;17.14;29.00;101186.59;4995037;28;20112;-85
2022/04/12 10:14:15;;;;;;;7.32;4.78;;;;;;;17.29;28.24;101173.06;4978309;28;20060;-84
2022/04/12 10:16:47;;;;;;;6.32;4.65;;;;;;;17.03;27.83;101167.13;4988690;28;20041;-84
2022/04/12 10:22:45;;;;;;;6.93;4.13;;;;;;;17.30;28.30;101158.81;4995958;28;20053;-84
2022/04/12 10:25:17;;;;;;;12.65;5.00;;;;;;;17.31;28.02;101169.31;4974886;28;20045;-85
2022/04/12 10:27:51;;;;;;;6.75;4.35;;;;;;;17.48;27.84;101168.00;4993868;28;20047;-83
2022/04/12 10:30:26;;;;;;;;;;;;;;;17.72;27.79;101157.19;4990093;28;20060;-87
2022/04/12 10:33:09;;;;;;;8.43;4.82;;;;;;;17.81;27.79;101164.47;4976811;28;19929;-84
2022/04/12 10:35:45;;;;;;;7.07;5.40;;;;;;;18.17;27.36;101165.97;4977731;28;20058;-86
2022/04/12 10:38:19;;;;;;;7.20;4.40;;;;;;;18.32;26.85;101157.66;5010772;28;20080;-85
2022/04/12 10:40:50;;;;;;;8.85;4.70;;;;;;;18.60;27.22;101166.88;4988854;28;20364;-82
2022/04/12 10:43:24;;;;;;;6.28;4.15;;;;;;;18.66;26.36;101148.53;4993871;28;20136;-85
2022/04/12 10:45:52;;;;;;;8.13;4.47;;;;;;;18.89;26.18;101156.44;5002841;28;20045;-82
2022/04/12 10:48:22;;;;;;;7.90;4.55;;;;;;;19.02;26.77;101156.22;5028449;28;20081;-84
2022/04/12 10:50:52;;;;;;;8.02;3.90;;;;;;;19.30;26.39;101155.53;4988471;28;20042;-86
2022/04/12 10:53:35;;;;;;;5.25;4.50;;;;;;;19.14;25.50;101164.03;5009737;28;20041;-83
2022/04/12 10:56:14;;;;;;;7.18;4.95;;;;;;;19.22;26.23;101160.69;5028761;28;20453;-84
2022/04/12 10:58:44;;;;;;;7.50;4.40;;;;;;;19.00;24.09;101147.50;5030073;28;20045;-86
2022/04/12 11:01:33;;;;;;;10.65;4.70;;;;;;;18.78;24.77;101153.81;5011535;28;20068;-86
2022/04/12 11:04:03;;;;;;;9.07;4.93;;;;;;;18.73;25.30;101154.22;5016344;28;20694;-85
2022/04/12 11:06:32;;;;;;;6.38;4.60;;;;;;;19.12;25.50;101146.44;5005064;28;20053;-87
2022/04/12 11:09:10;;;;;;;7.50;4.60;;;;;;;19.40;25.34;101151.06;5013800;28;20127;-85
2022/04/12 11:11:44;;;;;;;9.63;4.50;;;;;;;19.36;25.43;101152.34;4997956;28;20057;-84
2022/04/12 11:14:40;;;;;;;8.00;4.95;;;;;;;19.30;24.97;101138.66;5000420;28;20060;-86
2022/04/12 11:17:13;;;;;;;9.32;4.95;;;;;;;19.54;25.61;101139.16;4992300;28;20561;-82
2022/04/12 11:19:49;;;;;;;6.82;4.78;;;;;;;19.91;25.24;101131.44;5001085;28;20512;-81
2022/04/12 11:22:20;;;;;;;8.02;4.97;;;;;;;19.80;25.28;101141.38;5018307;28;20048;-85
2022/04/12 11:25:21;;;;;;;9.35;5.00;;;;;;;19.51;25.57;101138.63;5023258;28;20042;-87
2022/04/12 11:27:56;;;;;;;9.50;4.80;;;;;;;19.83;25.00;101135.78;4995723;28;20129;-86
2022/04/12 11:30:27;;;;;;;8.75;4.80;;;;;;;19.95;25.12;101132.00;4985306;28;20156;-87
2022/04/12 11:32:58;;;;;;;8.38;4.97;;;;;;;19.98;25.25;101135.22;5021079;28;20045;-82
2022/04/12 11:35:30;;;;;;;6.35;4.57;;;;;;;20.00;24.60;101116.38;5000183;28;20052;-87
2022/04/12 11:37:58;;;;;;;8.05;4.53;;;;;;;20.22;24.54;101109.94;5028910;28;20040;-84
2022/04/12 11:40:33;;;;;;;9.23;4.87;;;;;;;20.39;24.31;101113.69;4998496;28;20050;-86
2022/04/12 11:43:00;;;;;;;7.38;4.03;;;;;;;20.31;23.87;101109.09;5004361;28;20480;-87
2022/04/12 11:45:33;;;;;;;9.25;4.13;;;;;;;20.46;23.53;101104.13;5000319;28;20117;-84